createdAt,value
2023-03-19T00:04:19.120Z,100.00
2023-03-19T00:09:44.829Z,100.00
2023-03-19T00:15:09.631Z,100.00
2023-03-19T00:20:32.049Z,100.00
2023-03-19T00:25:56.769Z,100.00
2023-03-19T00:31:19.220Z,100.00
2023-03-19T00:36:42.085Z,100.00
2023-03-19T00:42:04.110Z,100.00
2023-03-19T00:47:28.371Z,100.00
2023-03-19T00:52:52.731Z,100.00
2023-03-19T00:58:14.848Z,100.00
2023-03-19T01:03:37.768Z,100.00
2023-03-19T01:09:00.776Z,100.00
2023-03-19T01:14:23.113Z,100.00
2023-03-19T01:19:48.003Z,100.00
2023-03-19T01:25:13.164Z,100.00
2023-03-19T01:30:42.405Z,100.00
2023-03-19T01:36:27.103Z,100.00
2023-03-19T01:41:56.259Z,100.00
2023-03-19T01:47:43.683Z,100.00
2023-03-19T01:53:08.292Z,100.00
2023-03-19T01:58:59.710Z,100.00
2023-03-19T02:04:38.875Z,100.00
2023-03-19T02:10:04.350Z,100.00
2023-03-19T02:15:27.637Z,100.00
2023-03-19T02:21:15.802Z,100.00
2023-03-19T02:26:41.264Z,100.00
2023-03-19T02:32:04.758Z,100.00
2023-03-19T02:37:33.631Z,100.00
2023-03-19T02:42:56.286Z,100.00
2023-03-19T02:48:18.956Z,100.00
2023-03-19T02:53:41.349Z,100.00
2023-03-19T02:59:03.515Z,100.00
2023-03-19T03:04:26.921Z,100.00
2023-03-19T03:09:49.094Z,100.00
2023-03-19T03:15:11.279Z,100.00
2023-03-19T03:20:33.913Z,100.00
2023-03-19T03:25:56.737Z,100.00
2023-03-19T03:31:19.752Z,100.00
2023-03-19T03:36:42.200Z,100.00
2023-03-19T03:42:05.302Z,100.00
2023-03-19T03:47:29.475Z,100.00
2023-03-19T03:52:51.932Z,100.00
2023-03-19T03:58:14.896Z,100.00
2023-03-19T04:03:37.321Z,100.00
2023-03-19T04:09:08.743Z,100.00
2023-03-19T04:14:31.724Z,100.00
2023-03-19T04:19:54.203Z,100.00
2023-03-19T04:25:16.380Z,100.00
2023-03-19T04:30:39.562Z,100.00
2023-03-19T04:36:09.096Z,100.00
2023-03-19T04:41:33.754Z,100.00
2023-03-19T04:47:10.942Z,100.00
2023-03-19T04:52:45.215Z,100.00
2023-03-19T04:58:09.583Z,100.00
2023-03-19T05:03:32.831Z,100.00
2023-03-19T05:08:55.086Z,100.00
2023-03-19T05:14:18.305Z,100.00
2023-03-19T05:20:01.156Z,100.00
2023-03-19T05:25:24.645Z,100.00
2023-03-19T05:30:47.423Z,100.00
2023-03-19T05:36:14.683Z,100.00
2023-03-19T05:41:50.610Z,100.00
2023-03-19T05:47:16.832Z,100.00
2023-03-19T05:52:47.042Z,100.00
2023-03-19T05:58:09.246Z,100.00
2023-03-19T06:03:32.065Z,100.00
2023-03-19T06:09:00.469Z,100.00
2023-03-19T06:14:34.470Z,100.00
2023-03-19T06:20:37.720Z,100.00
2023-03-19T06:26:00.357Z,100.00
2023-03-19T06:31:28.738Z,100.00
2023-03-19T06:36:57.781Z,100.00
2023-03-19T06:42:21.110Z,100.00
2023-03-19T06:47:47.712Z,100.00
2023-03-19T06:53:11.815Z,100.00
2023-03-19T06:58:34.130Z,100.00
2023-03-19T07:03:59.353Z,100.00
2023-03-19T07:09:23.365Z,100.00
2023-03-19T07:14:45.178Z,99.34
2023-03-19T07:20:08.123Z,97.36
2023-03-19T07:25:30.332Z,94.81
2023-03-19T07:30:56.546Z,96.63
2023-03-19T07:36:22.452Z,95.85
2023-03-19T07:41:45.554Z,95.24
2023-03-19T07:47:22.382Z,90.66
2023-03-19T07:52:52.189Z,89.61
2023-03-19T07:58:14.330Z,92.76
2023-03-19T08:03:36.616Z,89.45
2023-03-19T08:08:58.903Z,87.21
2023-03-19T08:14:23.107Z,89.47
2023-03-19T08:19:44.958Z,88.39
2023-03-19T08:25:08.325Z,87.60
2023-03-19T08:30:30.151Z,88.74
2023-03-19T08:35:52.778Z,87.94
2023-03-19T08:41:14.994Z,88.99
2023-03-19T08:46:37.249Z,87.73
2023-03-19T08:51:59.944Z,90.98
2023-03-19T08:57:25.388Z,85.00
2023-03-19T09:02:50.301Z,87.49
2023-03-19T09:08:13.155Z,86.46
2023-03-19T09:13:36.135Z,87.91
2023-03-19T09:18:59.485Z,89.45
2023-03-19T09:24:21.811Z,85.56
2023-03-19T09:29:44.700Z,88.51
2023-03-19T09:35:07.841Z,85.16
2023-03-19T09:40:39.658Z,88.44
2023-03-19T09:46:04.933Z,87.59
2023-03-19T09:52:10.355Z,89.03
2023-03-19T09:57:35.239Z,90.42
2023-03-19T10:03:04.020Z,87.22
2023-03-19T10:08:48.371Z,89.63
2023-03-19T10:14:48.724Z,84.96
2023-03-19T10:20:16.858Z,88.03
2023-03-19T10:25:41.777Z,87.53
2023-03-19T10:31:51.500Z,87.77
2023-03-19T10:37:13.805Z,85.54
2023-03-19T10:43:03.154Z,83.58
2023-03-19T10:48:29.825Z,82.76
2023-03-19T10:53:54.265Z,79.81
2023-03-19T10:59:38.812Z,83.46
2023-03-19T11:05:13.545Z,82.76
2023-03-19T11:10:37.272Z,84.02
2023-03-19T11:16:01.436Z,82.58
2023-03-19T11:21:31.383Z,81.40
2023-03-19T11:26:57.952Z,77.74
2023-03-19T11:32:51.085Z,77.43
2023-03-19T11:38:30.297Z,76.52
2023-03-19T11:43:59.165Z,74.82
2023-03-19T11:49:25.937Z,74.65
2023-03-19T11:54:59.584Z,73.65
2023-03-19T12:00:31.904Z,69.83
2023-03-19T12:06:18.736Z,71.27
2023-03-19T12:12:03.926Z,69.70
2023-03-19T12:17:41.639Z,70.25
2023-03-19T12:23:51.183Z,70.29
2023-03-19T12:29:15.477Z,70.14
2023-03-19T12:34:52.954Z,68.24
2023-03-19T12:40:21.082Z,65.87
2023-03-19T12:45:47.930Z,66.46
2023-03-19T12:51:15.604Z,67.69
2023-03-19T12:56:41.292Z,66.53
2023-03-19T13:02:46.022Z,65.86
2023-03-19T13:08:34.837Z,66.59
2023-03-19T13:14:09.462Z,65.94
2023-03-19T13:19:59.699Z,67.34
2023-03-19T13:25:51.435Z,67.30
2023-03-19T13:31:25.272Z,69.19
2023-03-19T13:36:56.863Z,70.69
2023-03-19T13:42:46.019Z,71.75
2023-03-19T13:48:27.359Z,71.80
2023-03-19T13:54:04.614Z,71.74
2023-03-19T13:59:29.060Z,73.44
2023-03-19T14:05:11.006Z,73.44
2023-03-19T14:10:33.820Z,72.99
2023-03-19T14:16:28.005Z,73.99
2023-03-19T14:21:52.981Z,73.31
2023-03-19T14:27:19.000Z,74.44
2023-03-19T14:32:43.904Z,75.36
2023-03-19T14:38:16.539Z,76.84
2023-03-19T14:44:25.411Z,78.17
2023-03-19T14:50:25.102Z,78.66
2023-03-19T14:55:53.947Z,79.71
2023-03-19T15:01:17.025Z,80.44
2023-03-19T15:06:42.051Z,81.54
2023-03-19T15:12:22.496Z,81.96
2023-03-19T15:17:51.626Z,82.14
2023-03-19T15:23:27.492Z,83.01
2023-03-19T15:28:53.968Z,85.28
2023-03-19T15:34:22.619Z,87.47
2023-03-19T15:39:53.800Z,90.27
2023-03-19T15:45:21.953Z,91.51
2023-03-19T15:50:47.309Z,92.00
2023-03-19T15:56:10.363Z,92.55
2023-03-19T16:01:34.747Z,92.16
2023-03-19T16:06:59.144Z,92.70
2023-03-19T16:12:39.863Z,92.71
2023-03-19T16:18:41.076Z,94.59
2023-03-19T16:24:31.465Z,96.74
2023-03-19T16:29:59.119Z,97.36
2023-03-19T16:35:21.159Z,99.44
2023-03-19T16:40:45.160Z,100.00
2023-03-19T16:46:12.964Z,100.00
2023-03-19T16:51:39.386Z,100.00
2023-03-19T16:57:04.740Z,100.00
2023-03-19T17:02:28.011Z,100.00
2023-03-19T17:07:51.242Z,100.00
2023-03-19T17:13:32.185Z,100.00
2023-03-19T17:18:55.974Z,100.00
2023-03-19T17:24:27.483Z,100.00
2023-03-19T17:29:53.012Z,100.00
2023-03-19T17:35:18.171Z,100.00
2023-03-19T17:40:40.487Z,100.00
2023-03-19T17:46:06.740Z,100.00
2023-03-19T17:51:29.126Z,100.00
2023-03-19T17:56:51.300Z,100.00
2023-03-19T18:02:29.057Z,100.00
2023-03-19T18:07:53.868Z,100.00
2023-03-19T18:13:16.159Z,100.00
2023-03-19T18:18:38.213Z,100.00
2023-03-19T18:24:00.307Z,100.00
2023-03-19T18:29:22.589Z,100.00
2023-03-19T18:34:44.795Z,100.00
2023-03-19T18:40:07.521Z,100.00
2023-03-19T18:45:31.512Z,100.00
2023-03-19T18:50:56.801Z,100.00
2023-03-19T18:56:31.625Z,100.00
2023-03-19T19:02:18.342Z,100.00
2023-03-19T19:07:40.399Z,100.00
2023-03-19T19:13:02.864Z,100.00
2023-03-19T19:18:29.089Z,100.00
2023-03-19T19:23:50.941Z,100.00
2023-03-19T19:29:26.097Z,100.00
2023-03-19T19:34:48.556Z,100.00
2023-03-19T19:40:14.809Z,100.00
2023-03-19T19:45:38.799Z,100.00
2023-03-19T19:51:01.666Z,100.00
2023-03-19T19:56:26.404Z,100.00
2023-03-19T20:01:48.667Z,100.00
2023-03-19T20:07:10.953Z,100.00
2023-03-19T20:12:34.068Z,100.00
2023-03-19T20:17:57.000Z,100.00
2023-03-19T20:23:19.532Z,100.00
2023-03-19T20:28:42.702Z,100.00
2023-03-19T20:34:04.659Z,100.00
2023-03-19T20:39:26.630Z,100.00
2023-03-19T20:44:49.296Z,100.00
2023-03-19T20:50:32.021Z,100.00
2023-03-19T20:55:58.020Z,100.00
2023-03-19T21:01:20.406Z,100.00
2023-03-19T21:06:52.891Z,100.00
2023-03-19T21:12:29.262Z,100.00
2023-03-19T21:17:52.108Z,100.00
2023-03-19T21:23:30.567Z,100.00
2023-03-19T21:29:08.818Z,100.00
2023-03-19T21:34:31.171Z,100.00
2023-03-19T21:39:53.316Z,100.00
2023-03-19T21:45:21.195Z,100.00
2023-03-19T21:50:43.697Z,100.00
2023-03-19T21:56:07.748Z,100.00
2023-03-19T22:01:29.852Z,100.00
2023-03-19T22:06:52.409Z,100.00
2023-03-19T22:12:28.061Z,100.00
2023-03-19T22:17:50.828Z,100.00
2023-03-19T22:23:14.378Z,100.00
2023-03-19T22:28:36.697Z,100.00
2023-03-19T22:33:59.081Z,100.00
2023-03-19T22:39:21.378Z,100.00
2023-03-19T22:44:43.586Z,100.00
2023-03-19T22:50:11.663Z,100.00
2023-03-19T22:55:36.497Z,100.00
2023-03-19T23:00:59.354Z,100.00
2023-03-19T23:06:30.197Z,100.00
2023-03-19T23:11:54.683Z,100.00
2023-03-19T23:17:42.878Z,100.00
2023-03-19T23:23:05.238Z,100.00
2023-03-19T23:28:32.160Z,100.00
2023-03-19T23:33:54.367Z,100.00
2023-03-19T23:39:17.074Z,100.00
2023-03-19T23:44:39.139Z,100.00
2023-03-19T23:50:01.265Z,100.00
2023-03-19T23:55:24.920Z,100.00
